sensor_id;sensor_type;location;lat;lon;timestamp;pressure;altitude;pressure_sealevel;temperature;humidity
9419;BME280;4748;50.802;7.132;2023-04-07T00:00:48;100811.59;;;9.77;100.00
9419;BME280;4748;50.802;7.132;2023-04-07T00:03:13;100818.97;;;9.82;100.00
9419;BME280;4748;50.802;7.132;2023-04-07T00:05:39;100813.41;;;9.83;100.00
9419;BME280;4748;50.802;7.132;2023-04-07T00:08:04;100813.59;;;9.88;100.00
9419;BME280;4748;50.802;7.132;2023-04-07T00:10:29;100816.09;;;9.83;100.00
9419;BME280;4748;50.802;7.132;2023-04-07T00:12:55;100813.00;;;9.86;100.00
9419;BME280;4748;50.802;7.132;2023-04-07T00:15:20;100797.16;;;9.85;100.00
9419;BME280;4748;50.802;7.132;2023-04-07T00:17:45;100804.53;;;9.89;100.00
9419;BME280;4748;50.802;7.132;2023-04-07T00:20:11;100802.31;;;9.80;100.00
9419;BME280;4748;50.802;7.132;2023-04-07T00:22:36;100802.53;;;9.78;100.00
9419;BME280;4748;50.802;7.132;2023-04-07T00:25:02;100805.44;;;9.70;100.00
9419;BME280;4748;50.802;7.132;2023-04-07T00:27:27;100796.38;;;9.71;100.00
9419;BME280;4748;50.802;7.132;2023-04-07T00:29:52;100798.03;;;9.72;100.00
9419;BME280;4748;50.802;7.132;2023-04-07T00:32:20;100792.09;;;9.70;100.00
9419;BME280;4748;50.802;7.132;2023-04-07T00:34:45;100792.69;;;9.72;100.00
9419;BME280;4748;50.802;7.132;2023-04-07T00:37:11;100784.44;;;9.74;100.00
9419;BME280;4748;50.802;7.132;2023-04-07T00:39:36;100791.25;;;9.70;100.00
9419;BME280;4748;50.802;7.132;2023-04-07T00:42:05;100793.47;;;9.79;100.00
9419;BME280;4748;50.802;7.132;2023-04-07T00:44:31;100794.72;;;9.77;100.00
9419;BME280;4748;50.802;7.132;2023-04-07T00:46:56;100790.44;;;9.69;100.00
9419;BME280;4748;50.802;7.132;2023-04-07T00:49:21;100780.34;;;9.71;100.00
9419;BME280;4748;50.802;7.132;2023-04-07T00:51:47;100778.28;;;9.73;100.00
9419;BME280;4748;50.802;7.132;2023-04-07T00:54:12;100772.94;;;9.73;100.00
9419;BME280;4748;50.802;7.132;2023-04-07T00:56:38;100769.22;;;9.81;100.00
9419;BME280;4748;50.802;7.132;2023-04-07T00:59:03;100772.69;;;9.81;100.00
9419;BME280;4748;50.802;7.132;2023-04-07T01:01:43;100773.53;;;9.82;100.00
9419;BME280;4748;50.802;7.132;2023-04-07T01:04:28;100766.75;;;9.79;100.00
9419;BME280;4748;50.802;7.132;2023-04-07T01:07:00;100761.41;;;9.73;100.00
9419;BME280;4748;50.802;7.132;2023-04-07T01:09:34;100758.50;;;9.81;100.00
9419;BME280;4748;50.802;7.132;2023-04-07T01:12:11;100757.69;;;9.80;100.00
9419;BME280;4748;50.802;7.132;2023-04-07T01:14:50;100758.09;;;9.84;100.00
9419;BME280;4748;50.802;7.132;2023-04-07T01:17:20;100754.03;;;9.68;100.00
9419;BME280;4748;50.802;7.132;2023-04-07T01:19:58;100748.88;;;9.73;100.00
9419;BME280;4748;50.802;7.132;2023-04-07T01:22:40;100749.47;;;9.75;100.00
9419;BME280;4748;50.802;7.132;2023-04-07T01:27:57;100748.25;;;9.71;100.00
9419;BME280;4748;50.802;7.132;2023-04-07T01:30:27;100746.44;;;9.72;100.00
9419;BME280;4748;50.802;7.132;2023-04-07T01:32:55;100748.31;;;9.65;100.00
9419;BME280;4748;50.802;7.132;2023-04-07T01:35:22;100742.16;;;9.65;100.00
9419;BME280;4748;50.802;7.132;2023-04-07T01:37:49;100751.78;;;9.72;100.00
9419;BME280;4748;50.802;7.132;2023-04-07T01:40:15;100746.22;;;9.73;100.00
9419;BME280;4748;50.802;7.132;2023-04-07T01:42:42;100747.88;;;9.68;100.00
9419;BME280;4748;50.802;7.132;2023-04-07T01:45:09;100743.97;;;9.64;100.00
9419;BME280;4748;50.802;7.132;2023-04-07T01:47:35;100748.09;;;9.66;100.00
9419;BME280;4748;50.802;7.132;2023-04-07T01:50:02;100740.88;;;9.67;100.00
9419;BME280;4748;50.802;7.132;2023-04-07T01:52:34;100742.97;;;9.65;100.00
9419;BME280;4748;50.802;7.132;2023-04-07T01:55:00;100742.16;;;9.65;100.00
9419;BME280;4748;50.802;7.132;2023-04-07T01:57:25;100737.56;;;9.71;100.00
9419;BME280;4748;50.802;7.132;2023-04-07T01:59:51;100737.59;;;9.65;100.00
9419;BME280;4748;50.802;7.132;2023-04-07T02:02:17;100734.91;;;9.71;100.00
9419;BME280;4748;50.802;7.132;2023-04-07T02:07:18;100740.25;;;9.71;100.00
9419;BME280;4748;50.802;7.132;2023-04-07T02:09:46;100731.81;;;9.74;100.00
9419;BME280;4748;50.802;7.132;2023-04-07T02:12:13;100733.00;;;9.78;100.00
9419;BME280;4748;50.802;7.132;2023-04-07T02:14:41;100730.34;;;9.78;100.00
9419;BME280;4748;50.802;7.132;2023-04-07T02:17:07;100734.44;;;9.81;100.00
9419;BME280;4748;50.802;7.132;2023-04-07T02:19:33;100731.75;;;9.87;100.00
9419;BME280;4748;50.802;7.132;2023-04-07T02:22:02;100732.56;;;9.88;100.00
9419;BME280;4748;50.802;7.132;2023-04-07T02:24:29;100735.03;;;9.96;100.00
9419;BME280;4748;50.802;7.132;2023-04-07T02:26:54;100732.38;;;9.96;100.00
9419;BME280;4748;50.802;7.132;2023-04-07T02:29:20;100737.28;;;9.92;100.00
9419;BME280;4748;50.802;7.132;2023-04-07T02:31:45;100735.63;;;9.98;100.00
9419;BME280;4748;50.802;7.132;2023-04-07T02:34:11;100739.13;;;9.98;100.00
9419;BME280;4748;50.802;7.132;2023-04-07T02:36:36;100733.56;;;9.93;100.00
9419;BME280;4748;50.802;7.132;2023-04-07T02:39:01;100732.38;;;9.96;100.00
9419;BME280;4748;50.802;7.132;2023-04-07T02:41:27;100734.81;;;9.97;100.00
9419;BME280;4748;50.802;7.132;2023-04-07T02:43:53;100733.34;;;10.01;100.00
9419;BME280;4748;50.802;7.132;2023-04-07T02:46:18;100743.22;;;10.07;100.00
9419;BME280;4748;50.802;7.132;2023-04-07T02:48:43;100736.38;;;10.11;100.00
9419;BME280;4748;50.802;7.132;2023-04-07T02:51:09;100732.50;;;10.07;100.00
9419;BME280;4748;50.802;7.132;2023-04-07T02:53:34;100734.75;;;10.10;100.00
9419;BME280;4748;50.802;7.132;2023-04-07T02:55:59;100738.81;;;10.13;100.00
9419;BME280;4748;50.802;7.132;2023-04-07T02:58:25;100736.56;;;10.16;100.00
9419;BME280;4748;50.802;7.132;2023-04-07T03:00:50;100740.03;;;10.17;100.00
9419;BME280;4748;50.802;7.132;2023-04-07T03:03:15;100739.59;;;10.19;100.00
9419;BME280;4748;50.802;7.132;2023-04-07T03:05:41;100745.41;;;10.17;100.00
9419;BME280;4748;50.802;7.132;2023-04-07T03:08:06;100739.22;;;10.16;100.00
9419;BME280;4748;50.802;7.132;2023-04-07T03:10:31;100736.78;;;10.15;100.00
9419;BME280;4748;50.802;7.132;2023-04-07T03:12:57;100735.34;;;10.12;100.00
9419;BME280;4748;50.802;7.132;2023-04-07T03:15:22;100741.34;;;10.08;100.00
9419;BME280;4748;50.802;7.132;2023-04-07T03:17:48;100738.47;;;10.03;100.00
9419;BME280;4748;50.802;7.132;2023-04-07T03:20:13;100733.34;;;10.01;100.00
9419;BME280;4748;50.802;7.132;2023-04-07T03:22:38;100738.53;;;9.96;100.00
9419;BME280;4748;50.802;7.132;2023-04-07T03:25:04;100730.72;;;9.95;100.00
9419;BME280;4748;50.802;7.132;2023-04-07T03:27:29;100729.47;;;9.91;100.00
9419;BME280;4748;50.802;7.132;2023-04-07T03:29:55;100732.94;;;9.91;100.00
9419;BME280;4748;50.802;7.132;2023-04-07T03:32:20;100730.50;;;9.90;100.00
9419;BME280;4748;50.802;7.132;2023-04-07T03:34:45;100734.22;;;9.89;100.00
9419;BME280;4748;50.802;7.132;2023-04-07T03:37:11;100728.88;;;9.89;100.00
9419;BME280;4748;50.802;7.132;2023-04-07T03:39:36;100731.75;;;9.87;100.00
9419;BME280;4748;50.802;7.132;2023-04-07T03:42:02;100733.81;;;9.85;100.00
9419;BME280;4748;50.802;7.132;2023-04-07T03:44:28;100731.13;;;9.85;100.00
9419;BME280;4748;50.802;7.132;2023-04-07T03:46:53;100727.66;;;9.85;100.00
9419;BME280;4748;50.802;7.132;2023-04-07T03:49:18;100726.00;;;9.84;100.00
9419;BME280;4748;50.802;7.132;2023-04-07T03:51:44;100733.00;;;9.85;100.00
9419;BME280;4748;50.802;7.132;2023-04-07T03:54:09;100727.44;;;9.80;100.00
9419;BME280;4748;50.802;7.132;2023-04-07T03:56:35;100728.72;;;9.77;100.00
9419;BME280;4748;50.802;7.132;2023-04-07T03:59:01;100736.75;;;9.77;100.00
9419;BME280;4748;50.802;7.132;2023-04-07T04:01:27;100733.00;;;9.78;100.00
9419;BME280;4748;50.802;7.132;2023-04-07T04:03:52;100732.00;;;9.73;100.00
9419;BME280;4748;50.802;7.132;2023-04-07T04:06:17;100730.59;;;9.70;100.00
9419;BME280;4748;50.802;7.132;2023-04-07T04:08:43;100726.50;;;9.68;100.00
9419;BME280;4748;50.802;7.132;2023-04-07T04:11:08;100720.94;;;9.69;100.00
9419;BME280;4748;50.802;7.132;2023-04-07T04:13:33;100732.84;;;9.67;100.00
9419;BME280;4748;50.802;7.132;2023-04-07T04:15:59;100743.75;;;9.65;100.00
9419;BME280;4748;50.802;7.132;2023-04-07T04:18:24;100732.69;;;9.62;100.00
9419;BME280;4748;50.802;7.132;2023-04-07T04:20:49;100736.16;;;9.63;100.00
9419;BME280;4748;50.802;7.132;2023-04-07T04:23:15;100739.88;;;9.62;100.00
9419;BME280;4748;50.802;7.132;2023-04-07T04:25:40;100741.31;;;9.64;100.00
9419;BME280;4748;50.802;7.132;2023-04-07T04:28:06;100737.81;;;9.64;100.00
9419;BME280;4748;50.802;7.132;2023-04-07T04:30:31;100746.25;;;9.61;100.00
9419;BME280;4748;50.802;7.132;2023-04-07T04:32:56;100744.41;;;9.61;100.00
9419;BME280;4748;50.802;7.132;2023-04-07T04:35:22;100745.22;;;9.62;100.00
9419;BME280;4748;50.802;7.132;2023-04-07T04:37:47;100744.63;;;9.60;100.00
9419;BME280;4748;50.802;7.132;2023-04-07T04:40:13;100741.34;;;9.58;100.00
9419;BME280;4748;50.802;7.132;2023-04-07T04:42:39;100751.63;;;9.61;100.00
9419;BME280;4748;50.802;7.132;2023-04-07T04:45:04;100756.75;;;9.62;100.00
9419;BME280;4748;50.802;7.132;2023-04-07T04:47:30;100761.47;;;9.60;100.00
9419;BME280;4748;50.802;7.132;2023-04-07T04:49:56;100754.66;;;9.64;100.00
9419;BME280;4748;50.802;7.132;2023-04-07T04:52:21;100754.06;;;9.62;100.00
9419;BME280;4748;50.802;7.132;2023-04-07T04:54:46;100761.25;;;9.62;100.00
9419;BME280;4748;50.802;7.132;2023-04-07T04:57:12;100754.50;;;9.59;100.00
9419;BME280;4748;50.802;7.132;2023-04-07T04:59:37;100764.34;;;9.59;100.00
9419;BME280;4748;50.802;7.132;2023-04-07T05:02:03;100758.56;;;9.62;100.00
9419;BME280;4748;50.802;7.132;2023-04-07T05:04:29;100768.03;;;9.64;100.00
9419;BME280;4748;50.802;7.132;2023-04-07T05:06:54;100768.06;;;9.58;100.00
9419;BME280;4748;50.802;7.132;2023-04-07T05:09:20;100769.09;;;9.57;100.00
9419;BME280;4748;50.802;7.132;2023-04-07T05:11:45;100773.63;;;9.50;100.00
9419;BME280;4748;50.802;7.132;2023-04-07T05:14:11;100775.50;;;9.49;100.00
9419;BME280;4748;50.802;7.132;2023-04-07T05:16:36;100777.94;;;9.51;100.00
9419;BME280;4748;50.802;7.132;2023-04-07T05:19:01;100777.31;;;9.49;100.00
9419;BME280;4748;50.802;7.132;2023-04-07T05:21:27;100773.66;;;9.43;100.00
9419;BME280;4748;50.802;7.132;2023-04-07T05:23:52;100779.59;;;9.39;100.00
9419;BME280;4748;50.802;7.132;2023-04-07T05:26:18;100786.19;;;9.43;100.00
9419;BME280;4748;50.802;7.132;2023-04-07T05:28:43;100788.66;;;9.44;100.00
9419;BME280;4748;50.802;7.132;2023-04-07T05:31:09;100793.19;;;9.44;100.00
9419;BME280;4748;50.802;7.132;2023-04-07T05:33:34;100789.06;;;9.48;100.00
9419;BME280;4748;50.802;7.132;2023-04-07T05:36:00;100796.88;;;9.43;100.00
9419;BME280;4748;50.802;7.132;2023-04-07T05:38:25;100794.41;;;9.48;100.00
9419;BME280;4748;50.802;7.132;2023-04-07T05:40:50;100781.69;;;9.43;100.00
9419;BME280;4748;50.802;7.132;2023-04-07T05:43:16;100793.19;;;9.44;100.00
9419;BME280;4748;50.802;7.132;2023-04-07T05:45:41;100783.72;;;9.48;100.00
9419;BME280;4748;50.802;7.132;2023-04-07T05:48:06;100787.03;;;9.43;100.00
9419;BME280;4748;50.802;7.132;2023-04-07T05:50:32;100789.28;;;9.46;100.00
9419;BME280;4748;50.802;7.132;2023-04-07T05:52:57;100790.09;;;9.40;100.00
9419;BME280;4748;50.802;7.132;2023-04-07T05:55:22;100802.22;;;9.43;100.00
9419;BME280;4748;50.802;7.132;2023-04-07T05:57:48;100803.22;;;9.42;100.00
9419;BME280;4748;50.802;7.132;2023-04-07T06:00:14;100797.72;;;9.43;100.00
9419;BME280;4748;50.802;7.132;2023-04-07T06:02:39;100803.44;;;9.47;100.00
9419;BME280;4748;50.802;7.132;2023-04-07T06:05:05;100810.88;;;9.45;100.00
9419;BME280;4748;50.802;7.132;2023-04-07T06:07:31;100808.41;;;9.43;100.00
9419;BME280;4748;50.802;7.132;2023-04-07T06:09:56;100805.72;;;9.37;100.00
9419;BME280;4748;50.802;7.132;2023-04-07T06:12:22;100811.66;;;9.39;100.00
9419;BME280;4748;50.802;7.132;2023-04-07T06:14:52;100809.63;;;9.41;100.00
9419;BME280;4748;50.802;7.132;2023-04-07T06:17:17;100812.09;;;9.42;100.00
9419;BME280;4748;50.802;7.132;2023-04-07T06:19:43;100820.72;;;9.44;100.00
9419;BME280;4748;50.802;7.132;2023-04-07T06:22:09;100815.56;;;9.43;100.00
9419;BME280;4748;50.802;7.132;2023-04-07T06:24:34;100820.28;;;9.47;100.00
9419;BME280;4748;50.802;7.132;2023-04-07T06:26:59;100828.94;;;9.49;100.00
9419;BME280;4748;50.802;7.132;2023-04-07T06:29:26;100825.84;;;9.46;100.00
9419;BME280;4748;50.802;7.132;2023-04-07T06:31:51;100828.72;;;9.44;100.00
9419;BME280;4748;50.802;7.132;2023-04-07T06:34:17;100835.13;;;9.43;100.00
9419;BME280;4748;50.802;7.132;2023-04-07T06:36:42;100830.78;;;9.42;100.00
9419;BME280;4748;50.802;7.132;2023-04-07T06:39:07;100837.97;;;9.42;100.00
9419;BME280;4748;50.802;7.132;2023-04-07T06:41:33;100829.34;;;9.40;100.00
9419;BME280;4748;50.802;7.132;2023-04-07T06:43:58;100836.34;;;9.41;100.00
9419;BME280;4748;50.802;7.132;2023-04-07T06:46:23;100841.47;;;9.42;100.00
9419;BME280;4748;50.802;7.132;2023-04-07T06:48:51;100843.31;;;9.42;100.00
9419;BME280;4748;50.802;7.132;2023-04-07T06:51:16;100838.59;;;9.44;100.00
9419;BME280;4748;50.802;7.132;2023-04-07T06:53:41;100854.84;;;9.42;100.00
9419;BME280;4748;50.802;7.132;2023-04-07T06:56:09;100857.72;;;9.41;100.00
9419;BME280;4748;50.802;7.132;2023-04-07T06:58:36;100848.88;;;9.47;100.00
9419;BME280;4748;50.802;7.132;2023-04-07T07:01:02;100858.31;;;9.43;100.00
9419;BME280;4748;50.802;7.132;2023-04-07T07:03:28;100858.31;;;9.43;100.00
9419;BME280;4748;50.802;7.132;2023-04-07T07:05:55;100866.34;;;9.49;100.00
9419;BME280;4748;50.802;7.132;2023-04-07T07:08:21;100865.72;;;9.47;100.00
9419;BME280;4748;50.802;7.132;2023-04-07T07:10:47;100863.88;;;9.48;100.00
9419;BME280;4748;50.802;7.132;2023-04-07T07:13:12;100868.81;;;9.51;100.00
9419;BME280;4748;50.802;7.132;2023-04-07T07:15:37;100867.97;;;9.57;100.00
9419;BME280;4748;50.802;7.132;2023-04-07T07:18:03;100862.41;;;9.58;100.00
9419;BME280;4748;50.802;7.132;2023-04-07T07:20:28;100871.25;;;9.59;100.00
9419;BME280;4748;50.802;7.132;2023-04-07T07:22:54;100883.19;;;9.56;100.00
9419;BME280;4748;50.802;7.132;2023-04-07T07:25:20;100867.13;;;9.63;100.00
9419;BME280;4748;50.802;7.132;2023-04-07T07:27:46;100884.41;;;9.66;100.00
9419;BME280;4748;50.802;7.132;2023-04-07T07:30:12;100890.34;;;9.68;100.00
9419;BME280;4748;50.802;7.132;2023-04-07T07:32:37;100898.38;;;9.68;100.00
9419;BME280;4748;50.802;7.132;2023-04-07T07:35:02;100888.31;;;9.70;100.00
9419;BME280;4748;50.802;7.132;2023-04-07T07:37:28;100883.78;;;9.77;100.00
9419;BME280;4748;50.802;7.132;2023-04-07T07:39:53;100899.19;;;9.75;100.00
9419;BME280;4748;50.802;7.132;2023-04-07T07:42:20;100890.75;;;9.78;100.00
9419;BME280;4748;50.802;7.132;2023-04-07T07:44:45;100902.50;;;9.77;100.00
9419;BME280;4748;50.802;7.132;2023-04-07T07:47:10;100891.38;;;9.80;100.00
9419;BME280;4748;50.802;7.132;2023-04-07T07:49:36;100899.19;;;9.82;100.00
9419;BME280;4748;50.802;7.132;2023-04-07T07:52:02;100901.44;;;9.85;100.00
9419;BME280;4748;50.802;7.132;2023-04-07T07:54:27;100913.56;;;9.81;100.00
9419;BME280;4748;50.802;7.132;2023-04-07T07:56:52;100913.19;;;9.77;100.00
9419;BME280;4748;50.802;7.132;2023-04-07T07:59:18;100911.09;;;9.79;100.00
9419;BME280;4748;50.802;7.132;2023-04-07T08:01:43;100923.84;;;9.84;100.00
9419;BME280;4748;50.802;7.132;2023-04-07T08:04:08;100923.03;;;9.83;100.00
9419;BME280;4748;50.802;7.132;2023-04-07T08:06:34;100917.06;;;9.88;100.00
9419;BME280;4748;50.802;7.132;2023-04-07T08:09:00;100911.31;;;9.97;100.00
9419;BME280;4748;50.802;7.132;2023-04-07T08:11:28;100917.47;;;10.04;100.00
9419;BME280;4748;50.802;7.132;2023-04-07T08:13:54;100924.03;;;10.08;100.00
9419;BME280;4748;50.802;7.132;2023-04-07T08:16:20;100933.50;;;10.17;100.00
9419;BME280;4748;50.802;7.132;2023-04-07T08:18:46;100927.28;;;10.23;100.00
9419;BME280;4748;50.802;7.132;2023-04-07T08:21:12;100930.81;;;10.17;100.00
9419;BME280;4748;50.802;7.132;2023-04-07T08:23:37;100938.22;;;10.21;100.00
9419;BME280;4748;50.802;7.132;2023-04-07T08:26:02;100934.03;;;10.32;100.00
9419;BME280;4748;50.802;7.132;2023-04-07T08:28:28;100941.47;;;10.30;100.00
9419;BME280;4748;50.802;7.132;2023-04-07T08:30:53;100942.66;;;10.40;100.00
9419;BME280;4748;50.802;7.132;2023-04-07T08:33:18;100955.59;;;10.50;100.00
9419;BME280;4748;50.802;7.132;2023-04-07T08:35:44;100954.97;;;10.48;100.00
9419;BME280;4748;50.802;7.132;2023-04-07T08:38:09;100950.44;;;10.55;100.00
9419;BME280;4748;50.802;7.132;2023-04-07T08:40:34;100958.03;;;10.58;100.00
9419;BME280;4748;50.802;7.132;2023-04-07T08:43:08;100968.13;;;10.56;100.00
9419;BME280;4748;50.802;7.132;2023-04-07T08:45:38;100959.69;;;10.59;100.00
9419;BME280;4748;50.802;7.132;2023-04-07T08:48:12;100964.81;;;10.67;100.00
9419;BME280;4748;50.802;7.132;2023-04-07T08:50:43;100962.34;;;10.65;100.00
9419;BME280;4748;50.802;7.132;2023-04-07T08:53:13;100958.38;;;10.74;100.00
9419;BME280;4748;50.802;7.132;2023-04-07T08:55:43;100957.31;;;10.81;100.00
9419;BME280;4748;50.802;7.132;2023-04-07T08:58:09;100965.53;;;10.86;100.00
9419;BME280;4748;50.802;7.132;2023-04-07T09:00:39;100970.81;;;10.99;100.00
9419;BME280;4748;50.802;7.132;2023-04-07T09:03:16;100966.50;;;10.98;100.00
9419;BME280;4748;50.802;7.132;2023-04-07T09:05:45;100970.19;;;10.97;100.00
9419;BME280;4748;50.802;7.132;2023-04-07T09:08:14;100976.56;;;11.03;100.00
9419;BME280;4748;50.802;7.132;2023-04-07T09:10:45;100973.50;;;10.99;100.00
9419;BME280;4748;50.802;7.132;2023-04-07T09:13:13;100981.31;;;11.01;100.00
9419;BME280;4748;50.802;7.132;2023-04-07T09:15:39;100983.94;;;11.14;100.00
9419;BME280;4748;50.802;7.132;2023-04-07T09:18:07;100988.44;;;11.13;100.00
9419;BME280;4748;50.802;7.132;2023-04-07T09:21:00;100991.13;;;11.13;100.00
9419;BME280;4748;50.802;7.132;2023-04-07T09:23:39;100989.41;;;11.25;100.00
9419;BME280;4748;50.802;7.132;2023-04-07T09:28:59;100988.53;;;11.31;100.00
9419;BME280;4748;50.802;7.132;2023-04-07T09:31:45;100999.09;;;11.26;100.00
9419;BME280;4748;50.802;7.132;2023-04-07T09:34:25;101004.06;;;11.22;100.00
9419;BME280;4748;50.802;7.132;2023-04-07T09:36:51;101006.09;;;11.27;100.00
9419;BME280;4748;50.802;7.132;2023-04-07T09:39:16;100994.13;;;11.29;100.00
9419;BME280;4748;50.802;7.132;2023-04-07T09:41:42;100998.75;;;11.16;100.00
9419;BME280;4748;50.802;7.132;2023-04-07T09:44:09;101003.72;;;11.13;100.00
9419;BME280;4748;50.802;7.132;2023-04-07T09:46:34;100990.75;;;11.03;100.00
9419;BME280;4748;50.802;7.132;2023-04-07T09:49:02;101006.25;;;11.01;100.00
9419;BME280;4748;50.802;7.132;2023-04-07T09:51:31;101002.97;;;10.99;100.00
9419;BME280;4748;50.802;7.132;2023-04-07T09:53:58;101002.75;;;11.01;100.00
9419;BME280;4748;50.802;7.132;2023-04-07T09:56:23;101008.13;;;10.94;100.00
9419;BME280;4748;50.802;7.132;2023-04-07T09:58:51;101011.22;;;10.98;100.00
9419;BME280;4748;50.802;7.132;2023-04-07T10:01:17;101012.88;;;10.92;100.00
9419;BME280;4748;50.802;7.132;2023-04-07T10:03:44;101009.16;;;10.93;100.00
9419;BME280;4748;50.802;7.132;2023-04-07T10:06:11;101010.16;;;11.05;100.00
9419;BME280;4748;50.802;7.132;2023-04-07T10:08:39;100999.44;;;10.99;100.00
9419;BME280;4748;50.802;7.132;2023-04-07T10:11:06;101006.25;;;11.01;100.00
9419;BME280;4748;50.802;7.132;2023-04-07T10:13:33;101010.75;;;11.07;100.00
9419;BME280;4748;50.802;7.132;2023-04-07T10:16:04;101007.56;;;11.23;100.00
9419;BME280;4748;50.802;7.132;2023-04-07T10:18:33;101010.41;;;11.28;100.00
9419;BME280;4748;50.802;7.132;2023-04-07T10:21:03;101009.41;;;11.29;100.00
9419;BME280;4748;50.802;7.132;2023-04-07T10:26:18;101011.22;;;11.28;100.00
9419;BME280;4748;50.802;7.132;2023-04-07T10:28:50;101021.31;;;11.33;100.00
9419;BME280;4748;50.802;7.132;2023-04-07T10:31:17;101020.63;;;11.50;100.00
9419;BME280;4748;50.802;7.132;2023-04-07T10:33:51;101010.56;;;11.39;100.00
9419;BME280;4748;50.802;7.132;2023-04-07T10:36:18;101024.59;;;11.35;100.00
9419;BME280;4748;50.802;7.132;2023-04-07T10:41:39;101030.13;;;11.40;100.00
9419;BME280;4748;50.802;7.132;2023-04-07T10:44:06;101043.97;;;11.37;100.00
9419;BME280;4748;50.802;7.132;2023-04-07T10:49:10;101044.53;;;11.52;100.00
9419;BME280;4748;50.802;7.132;2023-04-07T10:51:36;101037.09;;;11.54;100.00
9419;BME280;4748;50.802;7.132;2023-04-07T10:54:20;101039.41;;;11.50;100.00
9419;BME280;4748;50.802;7.132;2023-04-07T10:59:28;101040.50;;;11.30;100.00
9419;BME280;4748;50.802;7.132;2023-04-07T11:04:43;101053.31;;;11.28;100.00
9419;BME280;4748;50.802;7.132;2023-04-07T11:07:10;101057.44;;;11.24;100.00
9419;BME280;4748;50.802;7.132;2023-04-07T11:09:35;101054.53;;;11.32;100.00
9419;BME280;4748;50.802;7.132;2023-04-07T11:12:01;101045.28;;;11.28;100.00
9419;BME280;4748;50.802;7.132;2023-04-07T11:14:28;101060.06;;;11.37;100.00
9419;BME280;4748;50.802;7.132;2023-04-07T11:16:54;101054.41;;;11.51;100.00
9419;BME280;4748;50.802;7.132;2023-04-07T11:19:19;101053.78;;;11.56;100.00
9419;BME280;4748;50.802;7.132;2023-04-07T11:21:45;101056.28;;;11.51;100.00
9419;BME280;4748;50.802;7.132;2023-04-07T11:24:33;101051.75;;;11.51;100.00
9419;BME280;4748;50.802;7.132;2023-04-07T11:27:02;101060.78;;;11.57;100.00
9419;BME280;4748;50.802;7.132;2023-04-07T11:29:31;101067.84;;;11.45;100.00
9419;BME280;4748;50.802;7.132;2023-04-07T11:31:58;101062.22;;;11.59;100.00
9419;BME280;4748;50.802;7.132;2023-04-07T11:34:30;101058.94;;;11.57;100.00
9419;BME280;4748;50.802;7.132;2023-04-07T11:36:56;101064.50;;;11.56;100.00
9419;BME280;4748;50.802;7.132;2023-04-07T11:39:25;101067.81;;;11.58;100.00
9419;BME280;4748;50.802;7.132;2023-04-07T11:41:57;101075.09;;;11.75;100.00
9419;BME280;4748;50.802;7.132;2023-04-07T11:44:22;101070.19;;;11.72;100.00
9419;BME280;4748;50.802;7.132;2023-04-07T11:46:55;101074.94;;;11.70;100.00
9419;BME280;4748;50.802;7.132;2023-04-07T11:49:20;101074.09;;;11.70;100.00
9419;BME280;4748;50.802;7.132;2023-04-07T11:51:47;101074.53;;;11.67;100.00
9419;BME280;4748;50.802;7.132;2023-04-07T11:54:13;101083.84;;;11.64;100.00
9419;BME280;4748;50.802;7.132;2023-04-07T11:56:46;101083.38;;;11.73;100.00
9419;BME280;4748;50.802;7.132;2023-04-07T11:59:19;101084.16;;;11.80;100.00
9419;BME280;4748;50.802;7.132;2023-04-07T12:01:46;101078.00;;;11.73;100.00
9419;BME280;4748;50.802;7.132;2023-04-07T12:04:12;101088.34;;;11.70;100.00
9419;BME280;4748;50.802;7.132;2023-04-07T12:06:41;101094.91;;;11.74;100.00
9419;BME280;4748;50.802;7.132;2023-04-07T12:09:23;101090.41;;;11.68;100.00
9419;BME280;4748;50.802;7.132;2023-04-07T12:11:49;101093.75;;;11.64;100.00
9419;BME280;4748;50.802;7.132;2023-04-07T12:14:14;101093.16;;;11.62;100.00
9419;BME280;4748;50.802;7.132;2023-04-07T12:16:40;101098.03;;;11.71;100.00
9419;BME280;4748;50.802;7.132;2023-04-07T12:19:06;101100.25;;;11.80;100.00
9419;BME280;4748;50.802;7.132;2023-04-07T12:21:32;101097.94;;;11.84;100.00
9419;BME280;4748;50.802;7.132;2023-04-07T12:23:57;101098.16;;;11.82;100.00
9419;BME280;4748;50.802;7.132;2023-04-07T12:26:23;101102.75;;;11.75;100.00
9419;BME280;4748;50.802;7.132;2023-04-07T12:28:49;101111.94;;;11.62;100.00
9419;BME280;4748;50.802;7.132;2023-04-07T12:31:15;101102.69;;;11.51;100.00
9419;BME280;4748;50.802;7.132;2023-04-07T12:33:40;101104.53;;;11.57;100.00
9419;BME280;4748;50.802;7.132;2023-04-07T12:36:05;101101.00;;;11.57;100.00
9419;BME280;4748;50.802;7.132;2023-04-07T12:38:31;101108.47;;;11.55;100.00
9419;BME280;4748;50.802;7.132;2023-04-07T12:40:56;101113.56;;;11.63;100.00
9419;BME280;4748;50.802;7.132;2023-04-07T12:43:30;101117.25;;;11.68;100.00
9419;BME280;4748;50.802;7.132;2023-04-07T12:45:55;101117.66;;;11.72;100.00
9419;BME280;4748;50.802;7.132;2023-04-07T12:48:21;101118.47;;;11.72;100.00
9419;BME280;4748;50.802;7.132;2023-04-07T12:50:47;101118.00;;;11.81;100.00
9419;BME280;4748;50.802;7.132;2023-04-07T12:53:13;101119.97;;;11.92;100.00
9419;BME280;4748;50.802;7.132;2023-04-07T12:55:38;101119.13;;;11.98;100.00
9419;BME280;4748;50.802;7.132;2023-04-07T12:58:04;101127.50;;;12.08;100.00
9419;BME280;4748;50.802;7.132;2023-04-07T13:00:29;101124.72;;;12.21;100.00
9419;BME280;4748;50.802;7.132;2023-04-07T13:02:55;101123.66;;;12.22;100.00
9419;BME280;4748;50.802;7.132;2023-04-07T13:05:21;101121.50;;;12.13;100.00
9419;BME280;4748;50.802;7.132;2023-04-07T13:07:46;101129.97;;;12.10;100.00
9419;BME280;4748;50.802;7.132;2023-04-07T13:10:12;101129.34;;;12.08;100.00
9419;BME280;4748;50.802;7.132;2023-04-07T13:12:37;101132.00;;;12.14;100.00
9419;BME280;4748;50.802;7.132;2023-04-07T13:15:04;101134.41;;;12.22;100.00
9419;BME280;4748;50.802;7.132;2023-04-07T13:17:30;101126.34;;;12.22;100.00
9419;BME280;4748;50.802;7.132;2023-04-07T13:19:55;101134.81;;;12.25;100.00
9419;BME280;4748;50.802;7.132;2023-04-07T13:22:21;101127.97;;;12.29;100.00
9419;BME280;4748;50.802;7.132;2023-04-07T13:24:47;101128.91;;;12.35;100.00
9419;BME280;4748;50.802;7.132;2023-04-07T13:27:12;101129.53;;;12.37;100.00